Time;durP1;ratioP1;P1;durP2;ratioP2;P2;SDS_P1;SDS_P2;PMS_P1;PMS_P2;Temp;Humidity;BMP_temperature;BMP_pressure;BME280_temperature;BME280_humidity;BME280_pressure;Samples;Min_cycle;Max_cycle;Signal;HPM_P1;HPM_P2
2022/09/22 00:01:10;;;;;;;19.50;9.73;;;;;;;;;;4971669;28;20038;-76
2022/09/22 00:03:38;;;;;;;19.23;9.77;;;;;;;;;;4971806;28;20027;-76
2022/09/22 00:06:12;;;;;;;17.77;9.73;;;;;;;;;;4971284;28;20026;-77
2022/09/22 00:08:38;;;;;;;22.33;10.27;;;;;;;;;;4971654;28;20026;-76
2022/09/22 00:11:04;;;;;;;23.75;9.65;;;;;;;;;;4971404;28;20080;-77
2022/09/22 00:13:31;;;;;;;17.83;9.35;;;;;;;;;;4971612;28;20035;-77
2022/09/22 00:15:59;;;;;;;20.65;9.60;;;;;;;;;;4971341;28;20431;-76
2022/09/22 00:18:25;;;;;;;21.48;9.32;;;;;;;;;;4971522;28;20403;-75
2022/09/22 00:20:51;;;;;;;20.60;9.77;;;;;;;;;;4971998;28;20057;-77
2022/09/22 00:23:17;;;;;;;16.48;8.98;;;;;;;;;;4975498;28;20038;-75
2022/09/22 00:25:43;;;;;;;15.82;8.52;;;;;;;;;;4995016;28;20023;-79
2022/09/22 00:28:11;;;;;;;16.88;8.07;;;;;;;;;;4988541;28;20030;-76
2022/09/22 00:30:41;;;;;;;19.50;8.60;;;;;;;;;;4985842;28;20023;-76
2022/09/22 00:33:07;;;;;;;15.80;7.97;;;;;;;;;;4985347;28;20045;-76
2022/09/22 00:35:36;;;;;;;16.05;8.05;;;;;;;;;;4984585;28;20023;-77
2022/09/22 00:38:04;;;;;;;18.20;7.88;;;;;;;;;;4975781;28;20026;-77
2022/09/22 00:40:30;;;;;;;17.25;8.57;;;;;;;;;;4969905;28;20483;-76
2022/09/22 00:43:11;;;;;;;17.98;8.38;;;;;;;;;;4971897;28;20034;-76
2022/09/22 00:45:37;;;;;;;19.20;8.20;;;;;;;;;;4984782;28;20037;-78
2022/09/22 00:48:03;;;;;;;19.17;8.63;;;;;;;;;;4972643;28;20492;-78
2022/09/22 00:50:29;;;;;;;16.92;8.10;;;;;;;;;;4970421;28;20033;-76
2022/09/22 00:52:58;;;;;;;14.52;7.97;;;;;;;;;;4982030;28;20082;-78
2022/09/22 00:55:28;;;;;;;17.80;8.95;;;;;;;;;;4998039;28;20022;-80
2022/09/22 00:57:55;;;;;;;20.23;7.90;;;;;;;;;;4993514;28;20041;-76
2022/09/22 01:00:21;;;;;;;12.50;7.57;;;;;;;;;;4973061;28;20054;-77
2022/09/22 01:02:48;;;;;;;15.73;8.02;;;;;;;;;;4975098;28;20023;-77
2022/09/22 01:05:14;;;;;;;14.88;8.00;;;;;;;;;;4974886;28;20038;-76
2022/09/22 01:07:41;;;;;;;18.25;8.88;;;;;;;;;;4977513;28;20098;-75
2022/09/22 01:10:08;;;;;;;17.70;8.52;;;;;;;;;;4974530;28;20031;-77
2022/09/22 01:12:35;;;;;;;22.83;9.90;;;;;;;;;;4973720;28;20023;-76
2022/09/22 01:15:21;;;;;;;16.48;8.63;;;;;;;;;;4974003;28;20034;-77
2022/09/22 01:18:18;;;;;;;14.65;7.90;;;;;;;;;;4965981;28;20043;-79
2022/09/22 01:21:02;;;;;;;15.88;8.60;;;;;;;;;;4973480;28;20019;-77
2022/09/22 01:23:46;;;;;;;16.60;8.20;;;;;;;;;;4976428;28;20037;-76
2022/09/22 01:26:19;;;;;;;15.07;7.88;;;;;;;;;;4980338;28;20108;-77
2022/09/22 01:29:04;;;;;;;14.63;7.72;;;;;;;;;;4993937;28;20082;-76
2022/09/22 01:31:36;;;;;;;14.48;7.35;;;;;;;;;;4981821;28;20030;-77
2022/09/22 01:34:10;;;;;;;19.58;7.88;;;;;;;;;;4974653;28;20034;-77
2022/09/22 01:36:36;;;;;;;;;;;;;;;;;;4974867;28;20031;-76
2022/09/22 01:39:09;;;;;;;14.48;7.50;;;;;;;;;;4975218;28;20080;-77
2022/09/22 01:41:50;;;;;;;14.50;7.82;;;;;;;;;;4975617;28;20042;-77
2022/09/22 01:44:35;;;;;;;12.90;7.13;;;;;;;;;;4973973;28;20026;-76
2022/09/22 01:47:10;;;;;;;15.20;7.25;;;;;;;;;;4973625;28;20027;-76
2022/09/22 01:49:38;;;;;;;15.10;7.90;;;;;;;;;;4973419;28;20027;-76
2022/09/22 01:52:07;;;;;;;14.23;7.43;;;;;;;;;;4971967;28;20046;-76
2022/09/22 01:54:38;;;;;;;13.75;7.07;;;;;;;;;;4973322;28;20027;-75
2022/09/22 01:57:12;;;;;;;12.38;7.10;;;;;;;;;;4972916;28;20030;-76
2022/09/22 01:59:40;;;;;;;14.15;7.03;;;;;;;;;;4974316;28;20034;-75
2022/09/22 02:02:11;;;;;;;13.68;6.78;;;;;;;;;;4981529;28;20082;-75
2022/09/22 02:04:39;;;;;;;12.13;6.63;;;;;;;;;;4990745;28;20039;-76
2022/09/22 02:07:08;;;;;;;14.82;7.40;;;;;;;;;;4991580;28;20030;-74
2022/09/22 02:09:34;;;;;;;15.60;7.65;;;;;;;;;;4992568;28;20027;-74
2022/09/22 02:12:02;;;;;;;14.85;8.15;;;;;;;;;;4995083;28;20042;-75
2022/09/22 02:14:28;;;;;;;18.45;8.40;;;;;;;;;;4990484;28;20055;-75
2022/09/22 02:16:54;;;;;;;14.65;7.93;;;;;;;;;;4973259;28;20471;-75
2022/09/22 02:19:23;;;;;;;17.30;8.88;;;;;;;;;;4973351;28;20030;-75
2022/09/22 02:21:49;;;;;;;19.98;8.45;;;;;;;;;;4973222;28;20023;-75
2022/09/22 02:24:32;;;;;;;16.77;9.23;;;;;;;;;;4972698;28;20119;-76
2022/09/22 02:27:00;;;;;;;16.80;8.13;;;;;;;;;;4973038;28;20112;-76
2022/09/22 02:29:29;;;;;;;15.27;7.97;;;;;;;;;;4972757;28;20035;-76
2022/09/22 02:31:56;;;;;;;16.88;8.20;;;;;;;;;;4976270;28;20444;-76
2022/09/22 02:34:22;;;;;;;19.20;8.23;;;;;;;;;;4973384;28;20498;-78
2022/09/22 02:37:03;;;;;;;17.95;9.60;;;;;;;;;;4974275;28;20101;-76
2022/09/22 02:39:39;;;;;;;15.82;7.88;;;;;;;;;;4990412;28;20024;-74
2022/09/22 02:42:08;;;;;;;15.48;7.93;;;;;;;;;;5057074;28;20389;-75
2022/09/22 02:44:47;;;;;;;16.00;7.57;;;;;;;;;;5053637;28;20033;-76
2022/09/22 02:47:16;;;;;;;13.77;7.65;;;;;;;;;;5062099;28;20029;-77
2022/09/22 02:49:43;;;;;;;15.32;7.38;;;;;;;;;;5056992;28;20064;-77
2022/09/22 02:52:18;;;;;;;13.48;7.50;;;;;;;;;;5057400;28;20056;-77
2022/09/22 02:54:44;;;;;;;;;;;;;;;;;;5069162;28;20048;-75
2022/09/22 02:57:10;;;;;;;17.58;7.43;;;;;;;;;;5063850;28;20286;-77
2022/09/22 02:59:36;;;;;;;21.08;7.65;;;;;;;;;;5076097;28;20017;-75
2022/09/22 03:02:02;;;;;;;16.95;7.28;;;;;;;;;;5077986;28;20039;-76
2022/09/22 03:04:28;;;;;;;14.85;7.45;;;;;;;;;;5077399;28;20029;-77
2022/09/22 03:06:54;;;;;;;12.23;6.68;;;;;;;;;;5075424;28;20043;-75
2022/09/22 03:09:20;;;;;;;15.15;7.45;;;;;;;;;;5059097;28;20029;-76
2022/09/22 03:11:46;;;;;;;15.18;7.07;;;;;;;;;;5052970;28;20021;-77
2022/09/22 03:14:12;;;;;;;15.38;7.88;;;;;;;;;;5053727;28;20060;-73
2022/09/22 03:16:38;;;;;;;14.77;6.82;;;;;;;;;;5053654;28;20025;-74
2022/09/22 03:19:04;;;;;;;12.55;6.68;;;;;;;;;;5053559;28;20047;-75
2022/09/22 03:21:30;;;;;;;11.77;6.35;;;;;;;;;;5053298;28;20029;-75
2022/09/22 03:23:56;;;;;;;14.20;6.88;;;;;;;;;;5053338;28;20451;-75
2022/09/22 03:26:22;;;;;;;18.13;6.95;;;;;;;;;;5053267;28;20135;-74
2022/09/22 03:28:48;;;;;;;11.73;6.20;;;;;;;;;;5051939;28;20395;-74
2022/09/22 03:31:14;;;;;;;16.85;8.13;;;;;;;;;;5054832;28;20032;-76
2022/09/22 03:33:40;;;;;;;17.10;7.47;;;;;;;;;;5054071;28;20025;-74
2022/09/22 03:36:06;;;;;;;14.63;7.20;;;;;;;;;;5052752;28;20560;-74
2022/09/22 03:38:32;;;;;;;12.98;6.47;;;;;;;;;;5056137;28;20033;-74
2022/09/22 03:41:00;;;;;;;13.32;6.22;;;;;;;;;;5057464;28;20033;-75
2022/09/22 03:43:26;;;;;;;16.40;6.93;;;;;;;;;;5057982;28;20032;-74
2022/09/22 03:45:56;;;;;;;11.30;6.20;;;;;;;;;;5059075;28;20029;-73
2022/09/22 03:48:22;;;;;;;11.35;6.35;;;;;;;;;;5058702;28;20025;-72
2022/09/22 03:50:48;;;;;;;11.50;6.20;;;;;;;;;;5058672;28;20091;-72
2022/09/22 03:53:14;;;;;;;14.60;5.60;;;;;;;;;;5058496;28;20025;-71
2022/09/22 03:55:40;;;;;;;11.60;6.03;;;;;;;;;;5056474;28;20100;-72
2022/09/22 03:58:06;;;;;;;14.70;7.07;;;;;;;;;;5054932;28;20068;-72
2022/09/22 04:00:32;;;;;;;17.75;7.00;;;;;;;;;;5054855;28;20086;-73
2022/09/22 04:02:58;;;;;;;11.43;5.75;;;;;;;;;;5054919;28;20040;-73
2022/09/22 04:05:25;;;;;;;13.07;6.00;;;;;;;;;;5054752;28;20075;-74
2022/09/22 04:07:51;;;;;;;14.52;6.50;;;;;;;;;;5052682;28;20048;-75
2022/09/22 04:10:17;;;;;;;11.38;5.90;;;;;;;;;;5053048;28;20443;-74
2022/09/22 04:12:43;;;;;;;18.02;6.05;;;;;;;;;;5053148;28;20024;-74
2022/09/22 04:15:09;;;;;;;17.40;6.85;;;;;;;;;;5052866;28;20029;-74
2022/09/22 04:17:38;;;;;;;14.23;7.15;;;;;;;;;;5054006;28;20031;-74
2022/09/22 04:20:06;;;;;;;14.60;6.72;;;;;;;;;;5054968;28;20025;-74
2022/09/22 04:22:32;;;;;;;12.40;5.88;;;;;;;;;;5054139;28;20056;-74
2022/09/22 04:24:58;;;;;;;14.68;6.13;;;;;;;;;;5053660;28;20037;-74
2022/09/22 04:27:24;;;;;;;12.82;5.72;;;;;;;;;;5052618;28;20029;-74
2022/09/22 04:29:50;;;;;;;17.50;6.05;;;;;;;;;;5053471;28;20032;-74
2022/09/22 04:32:16;;;;;;;11.20;5.75;;;;;;;;;;5054155;28;20505;-74
2022/09/22 04:34:42;;;;;;;11.27;5.70;;;;;;;;;;5070294;28;20101;-75
2022/09/22 04:37:09;;;;;;;14.38;5.72;;;;;;;;;;5076039;28;20029;-75
2022/09/22 04:39:35;;;;;;;9.63;5.72;;;;;;;;;;5076409;28;20069;-75
2022/09/22 04:42:01;;;;;;;11.82;5.68;;;;;;;;;;5073950;28;20033;-73
2022/09/22 04:44:27;;;;;;;12.07;5.90;;;;;;;;;;5074430;28;20024;-75
2022/09/22 04:46:54;;;;;;;17.10;7.22;;;;;;;;;;5064821;28;20032;-77
2022/09/22 04:49:21;;;;;;;10.65;5.80;;;;;;;;;;5055268;28;20386;-76
2022/09/22 04:51:47;;;;;;;11.65;5.68;;;;;;;;;;5053971;28;20363;-74
2022/09/22 04:54:13;;;;;;;13.23;5.72;;;;;;;;;;5053644;28;20085;-76
2022/09/22 04:56:39;;;;;;;13.77;6.03;;;;;;;;;;5052730;28;20462;-76
2022/09/22 04:59:05;;;;;;;11.55;6.20;;;;;;;;;;5052708;28;20036;-76
2022/09/22 05:01:31;;;;;;;8.88;4.85;;;;;;;;;;5051143;28;20382;-74
2022/09/22 05:03:57;;;;;;;9.65;5.60;;;;;;;;;;5052551;28;20381;-75
2022/09/22 05:06:23;;;;;;;11.88;6.10;;;;;;;;;;5051817;28;20025;-75
2022/09/22 05:08:49;;;;;;;11.98;5.85;;;;;;;;;;5052684;28;20025;-75
2022/09/22 05:11:15;;;;;;;14.38;7.25;;;;;;;;;;5052733;28;20024;-75
2022/09/22 05:13:41;;;;;;;13.40;6.40;;;;;;;;;;5052291;28;20025;-75
2022/09/22 05:16:07;;;;;;;12.40;6.22;;;;;;;;;;5053941;28;20032;-75
2022/09/22 05:18:33;;;;;;;13.45;6.50;;;;;;;;;;5064174;28;20072;-75
2022/09/22 05:21:00;;;;;;;14.88;6.60;;;;;;;;;;5071987;28;20039;-75
2022/09/22 05:23:26;;;;;;;9.90;5.45;;;;;;;;;;5058360;28;20112;-75
2022/09/22 05:25:52;;;;;;;12.05;6.25;;;;;;;;;;5052935;28;20509;-75
2022/09/22 05:28:20;;;;;;;14.45;5.78;;;;;;;;;;5053427;28;20493;-77
2022/09/22 05:30:48;;;;;;;13.20;5.95;;;;;;;;;;5052669;28;20443;-77
2022/09/22 05:33:14;;;;;;;11.63;6.03;;;;;;;;;;5051742;28;20025;-74
2022/09/22 05:35:41;;;;;;;11.82;5.85;;;;;;;;;;5052203;28;20021;-75
2022/09/22 05:38:06;;;;;;;10.25;5.20;;;;;;;;;;5053583;28;20036;-75
2022/09/22 05:40:32;;;;;;;13.20;6.10;;;;;;;;;;5056824;28;20033;-74
2022/09/22 05:42:58;;;;;;;13.77;5.90;;;;;;;;;;5055468;28;20021;-77
2022/09/22 05:45:24;;;;;;;9.10;5.20;;;;;;;;;;5058324;28;20481;-74
2022/09/22 05:47:51;;;;;;;13.98;7.15;;;;;;;;;;5055361;28;20025;-76
2022/09/22 05:50:18;;;;;;;11.95;5.78;;;;;;;;;;5054750;28;20032;-76
2022/09/22 05:52:44;;;;;;;17.92;9.20;;;;;;;;;;5054895;28;20055;-75
2022/09/22 05:55:11;;;;;;;18.23;8.18;;;;;;;;;;5055781;28;20429;-76
2022/09/22 05:57:37;;;;;;;15.48;7.93;;;;;;;;;;5055903;28;20108;-75
2022/09/22 06:00:04;;;;;;;10.65;6.05;;;;;;;;;;5056489;28;20114;-75
2022/09/22 06:02:30;;;;;;;15.57;5.57;;;;;;;;;;5055404;28;20048;-74
2022/09/22 06:04:56;;;;;;;20.48;11.57;;;;;;;;;;5055448;28;20036;-75
2022/09/22 06:07:25;;;;;;;34.63;17.80;;;;;;;;;;5055557;28;20044;-75
2022/09/22 06:09:51;;;;;;;18.60;9.02;;;;;;;;;;5055793;28;20051;-76
2022/09/22 06:12:18;;;;;;;18.15;7.55;;;;;;;;;;5055732;28;20462;-78
2022/09/22 06:14:44;;;;;;;19.00;6.45;;;;;;;;;;5055951;28;20028;-75
2022/09/22 06:17:10;;;;;;;12.98;6.22;;;;;;;;;;5055190;28;20021;-75
2022/09/22 06:19:37;;;;;;;17.95;6.80;;;;;;;;;;5057168;28;20100;-76
2022/09/22 06:22:03;;;;;;;14.30;6.57;;;;;;;;;;5057476;28;20063;-75
2022/09/22 06:24:29;;;;;;;18.20;7.88;;;;;;;;;;5054546;28;20032;-75
2022/09/22 06:26:55;;;;;;;18.25;8.32;;;;;;;;;;5056404;28;20074;-76
2022/09/22 06:29:21;;;;;;;16.17;8.30;;;;;;;;;;5055272;28;20033;-75
2022/09/22 06:31:48;;;;;;;18.55;10.07;;;;;;;;;;5055705;28;20074;-76
2022/09/22 06:34:14;;;;;;;14.20;7.35;;;;;;;;;;5056630;28;20017;-75
2022/09/22 06:36:41;;;;;;;12.15;5.78;;;;;;;;;;5056438;28;20025;-75
2022/09/22 06:39:07;;;;;;;16.77;6.38;;;;;;;;;;5057260;28;20488;-75
2022/09/22 06:41:33;;;;;;;12.68;5.80;;;;;;;;;;5056166;28;20029;-76
2022/09/22 06:43:59;;;;;;;16.25;5.82;;;;;;;;;;5057978;28;20044;-76
2022/09/22 06:46:26;;;;;;;18.38;7.13;;;;;;;;;;5057036;28;20378;-74
2022/09/22 06:48:56;;;;;;;14.30;6.70;;;;;;;;;;5056482;28;20025;-76
2022/09/22 06:51:26;;;;;;;20.90;7.38;;;;;;;;;;5063550;28;20029;-76
2022/09/22 06:53:53;;;;;;;13.88;6.80;;;;;;;;;;5074756;28;20028;-76
2022/09/22 06:56:28;;;;;;;14.45;6.60;;;;;;;;;;5076294;28;20044;-76
2022/09/22 06:58:55;;;;;;;14.93;6.70;;;;;;;;;;5071782;28;20036;-73
2022/09/22 07:01:22;;;;;;;24.83;11.70;;;;;;;;;;5070796;28;20017;-77
2022/09/22 07:03:48;;;;;;;15.82;8.60;;;;;;;;;;5071640;28;20081;-77
2022/09/22 07:06:16;;;;;;;15.80;7.95;;;;;;;;;;5071053;28;20025;-77
2022/09/22 07:08:43;;;;;;;53.15;18.00;;;;;;;;;;5069784;28;20028;-74
2022/09/22 07:11:09;;;;;;;20.38;9.38;;;;;;;;;;5068448;28;20428;-73
2022/09/22 07:13:39;;;;;;;23.05;10.88;;;;;;;;;;5062634;28;20025;-75
2022/09/22 07:16:08;;;;;;;13.35;7.70;;;;;;;;;;5058970;28;20044;-76
2022/09/22 07:18:35;;;;;;;18.50;8.38;;;;;;;;;;5058731;28;20028;-75
2022/09/22 07:21:06;;;;;;;20.48;9.45;;;;;;;;;;5056396;28;20112;-74
2022/09/22 07:23:35;;;;;;;17.42;8.90;;;;;;;;;;5054975;28;20060;-76
2022/09/22 07:26:03;;;;;;;26.98;9.45;;;;;;;;;;5053538;28;20034;-75
2022/09/22 07:28:30;;;;;;;35.17;10.30;;;;;;;;;;5053595;28;20028;-75
2022/09/22 07:30:56;;;;;;;27.65;11.05;;;;;;;;;;5052290;28;20036;-75
2022/09/22 07:33:23;;;;;;;25.65;10.13;;;;;;;;;;5050433;28;20025;-75
2022/09/22 07:35:58;;;;;;;23.17;9.20;;;;;;;;;;5052926;28;20040;-75
2022/09/22 07:38:35;;;;;;;18.10;8.75;;;;;;;;;;5053662;28;20025;-75
2022/09/22 07:41:01;;;;;;;24.83;8.68;;;;;;;;;;5053481;28;20021;-74
2022/09/22 07:43:27;;;;;;;22.83;8.65;;;;;;;;;;5053922;28;20029;-75
2022/09/22 07:45:56;;;;;;;24.58;8.98;;;;;;;;;;5053359;28;20033;-75
2022/09/22 07:51:07;;;;;;;;;;;;;;;;;;5064280;28;20457;-74
2022/09/22 07:53:34;;;;;;;21.95;7.68;;;;;;;;;;5064633;28;19915;-73
2022/09/22 07:56:11;;;;;;;22.02;7.60;;;;;;;;;;5064461;28;20051;-76
2022/09/22 07:58:37;;;;;;;17.35;6.82;;;;;;;;;;5066295;28;20029;-75
2022/09/22 08:01:09;;;;;;;15.68;6.80;;;;;;;;;;5063968;28;20175;-75
2022/09/22 08:03:36;;;;;;;20.88;7.55;;;;;;;;;;5065353;28;20033;-74
2022/09/22 08:06:04;;;;;;;20.25;6.90;;;;;;;;;;5058987;28;20037;-73
2022/09/22 08:08:33;;;;;;;15.40;5.20;;;;;;;;;;5060783;28;20493;-76
2022/09/22 08:11:12;;;;;;;21.63;6.93;;;;;;;;;;5060770;28;20123;-77
2022/09/22 08:13:43;;;;;;;23.25;5.68;;;;;;;;;;5061279;28;20115;-75
2022/09/22 08:16:10;;;;;;;14.25;4.53;;;;;;;;;;5063412;28;20052;-75
2022/09/22 08:18:38;;;;;;;22.08;6.13;;;;;;;;;;5063988;28;20040;-77
2022/09/22 08:21:04;;;;;;;13.75;5.13;;;;;;;;;;5068339;28;20029;-76
2022/09/22 08:23:30;;;;;;;21.13;5.50;;;;;;;;;;5071164;28;20052;-77
2022/09/22 08:25:56;;;;;;;20.65;5.88;;;;;;;;;;5055701;28;20108;-76
2022/09/22 08:28:22;;;;;;;18.63;4.75;;;;;;;;;;5052521;28;20025;-77
2022/09/22 08:30:51;;;;;;;16.20;4.97;;;;;;;;;;5053480;28;20496;-76
2022/09/22 08:33:17;;;;;;;12.13;3.65;;;;;;;;;;5053965;28;20662;-75
2022/09/22 08:35:50;;;;;;;15.65;3.58;;;;;;;;;;5052683;28;20115;-75
2022/09/22 08:38:16;;;;;;;20.55;4.93;;;;;;;;;;5052869;28;20043;-75
2022/09/22 08:40:44;;;;;;;18.83;4.35;;;;;;;;;;5052295;28;20025;-76
2022/09/22 08:43:11;;;;;;;11.90;3.63;;;;;;;;;;5052384;28;20025;-74
2022/09/22 08:45:39;;;;;;;15.23;3.92;;;;;;;;;;5052086;28;20032;-74
2022/09/22 08:53:45;;;;;;;12.05;4.00;;;;;;;;;;5054211;28;20175;-75
2022/09/22 08:56:17;;;;;;;15.88;3.95;;;;;;;;;;5052765;28;20486;-74
2022/09/22 08:58:48;;;;;;;18.88;3.47;;;;;;;;;;5053197;28;20075;-73
2022/09/22 09:01:29;;;;;;;12.05;2.55;;;;;;;;;;5053576;28;20025;-74
2022/09/22 09:04:17;;;;;;;9.90;2.13;;;;;;;;;;5050795;28;20072;-73
2022/09/22 09:06:52;;;;;;;10.48;2.78;;;;;;;;;;5052593;28;20098;-73
2022/09/22 09:09:38;;;;;;;11.85;3.15;;;;;;;;;;5050870;28;20029;-75
2022/09/22 09:12:10;;;;;;;11.75;2.70;;;;;;;;;;5053001;28;20037;-74
2022/09/22 09:14:51;;;;;;;11.52;1.98;;;;;;;;;;5059799;28;20028;-75
2022/09/22 09:17:22;;;;;;;15.00;2.55;;;;;;;;;;5055798;28;20075;-75
2022/09/22 09:19:51;;;;;;;9.40;2.28;;;;;;;;;;5056012;28;20086;-74
2022/09/22 09:22:23;;;;;;;9.77;2.70;;;;;;;;;;5055589;28;20035;-75
2022/09/22 09:24:50;;;;;;;11.48;2.70;;;;;;;;;;5055922;28;20528;-73
2022/09/22 09:27:20;;;;;;;8.45;2.25;;;;;;;;;;5056835;28;20033;-74
2022/09/22 09:29:46;;;;;;;6.35;1.75;;;;;;;;;;5056496;28;20027;-74
2022/09/22 09:32:24;;;;;;;10.18;1.90;;;;;;;;;;5055544;28;20104;-74
2022/09/22 09:34:50;;;;;;;11.63;1.98;;;;;;;;;;5053986;28;20064;-73
2022/09/22 09:37:17;;;;;;;6.00;1.27;;;;;;;;;;5060291;28;20040;-74
2022/09/22 09:39:44;;;;;;;8.52;1.63;;;;;;;;;;5056960;28;20021;-74
2022/09/22 09:42:32;;;;;;;10.00;1.65;;;;;;;;;;5055622;28;20103;-75
2022/09/22 09:45:01;;;;;;;6.28;1.70;;;;;;;;;;5060545;28;20021;-75
2022/09/22 09:47:39;;;;;;;8.45;1.58;;;;;;;;;;5059142;28;20021;-74
2022/09/22 09:50:05;;;;;;;7.57;3.22;;;;;;;;;;5063058;28;20028;-72
2022/09/22 09:52:37;;;;;;;6.47;1.95;;;;;;;;;;5059750;28;20029;-75
2022/09/22 09:55:05;;;;;;;7.15;1.60;;;;;;;;;;5060473;28;20108;-75
2022/09/22 09:57:31;;;;;;;11.77;1.70;;;;;;;;;;5060211;28;20055;-74
2022/09/22 10:00:30;;;;;;;15.60;1.85;;;;;;;;;;5059620;28;20393;-74
2022/09/22 10:03:11;;;;;;;9.15;2.15;;;;;;;;;;5057180;28;20028;-74
2022/09/22 10:05:37;;;;;;;9.05;1.58;;;;;;;;;;5055954;28;20614;-73
2022/09/22 10:08:14;;;;;;;10.20;1.52;;;;;;;;;;5055996;28;20117;-74
2022/09/22 10:10:40;;;;;;;4.80;1.20;;;;;;;;;;5055817;28;20040;-73
2022/09/22 10:13:06;;;;;;;7.35;1.63;;;;;;;;;;5056016;28;20524;-76
2022/09/22 10:15:33;;;;;;;11.55;1.55;;;;;;;;;;5056903;28;20020;-73
2022/09/22 10:17:59;;;;;;;8.05;2.50;;;;;;;;;;5057442;28;20032;-79
2022/09/22 10:20:32;;;;;;;10.98;2.13;;;;;;;;;;5055394;28;20393;-73
2022/09/22 10:23:19;;;;;;;12.85;1.40;;;;;;;;;;5055743;28;20052;-74
2022/09/22 10:25:45;;;;;;;11.38;1.50;;;;;;;;;;5055458;28;20035;-73
2022/09/22 10:28:18;;;;;;;10.82;1.92;;;;;;;;;;5058658;28;20040;-72
2022/09/22 10:30:56;;;;;;;7.45;1.55;;;;;;;;;;5063817;28;20060;-72
2022/09/22 10:33:22;;;;;;;6.75;1.67;;;;;;;;;;5063938;28;20115;-74
2022/09/22 10:36:02;;;;;;;8.60;1.73;;;;;;;;;;5063257;28;20029;-73
2022/09/22 10:38:28;;;;;;;8.40;1.55;;;;;;;;;;5071992;28;20025;-74
2022/09/22 10:40:56;;;;;;;5.40;1.52;;;;;;;;;;5075260;28;20020;-74
2022/09/22 10:43:37;;;;;;;8.77;2.05;;;;;;;;;;5070233;28;20029;-74
2022/09/22 10:46:27;;;;;;;5.53;1.42;;;;;;;;;;5074503;28;20025;-73
2022/09/22 10:48:54;;;;;;;11.88;2.50;;;;;;;;;;5071214;28;20037;-74
2022/09/22 10:51:29;;;;;;;7.82;1.50;;;;;;;;;;5023592;28;20035;-75
2022/09/22 10:54:13;;;;;;;5.53;1.98;;;;;;;;;;4953221;28;20027;-75
2022/09/22 10:56:39;;;;;;;;;;;;;;;;;;4953163;28;20077;-74
2022/09/22 10:59:24;;;;;;;7.88;1.50;;;;;;;;;;4971842;28;19908;-74
2022/09/22 11:01:56;;;;;;;12.60;2.15;;;;;;;;;;4992309;28;20024;-74
2022/09/22 11:04:31;;;;;;;4.75;1.38;;;;;;;;;;4971076;28;20763;-74
2022/09/22 11:12:15;;;;;;;6.95;1.23;;;;;;;;;;5023987;28;20409;-74
2022/09/22 11:13:07;;;;;;;6.77;1.50;;;;;;;;;;5029375;28;20074;-73
2022/09/22 11:15:36;;;;;;;6.63;1.65;;;;;;;;;;5017586;28;20377;-74
2022/09/22 11:18:05;;;;;;;7.38;1.77;;;;;;;;;;5023513;28;20372;-75
2022/09/22 11:20:33;;;;;;;9.63;1.95;;;;;;;;;;5031139;28;20454;-74
2022/09/22 11:23:21;;;;;;;12.80;2.03;;;;;;;;;;5037262;28;20029;-75
2022/09/22 11:26:00;;;;;;;10.20;1.65;;;;;;;;;;5053725;28;20111;-74
2022/09/22 11:28:41;;;;;;;10.20;2.70;;;;;;;;;;5053466;28;20025;-74
2022/09/22 11:31:08;;;;;;;11.25;2.00;;;;;;;;;;5053440;28;20057;-74
2022/09/22 11:33:37;;;;;;;8.57;1.95;;;;;;;;;;5003322;28;20046;-75
2022/09/22 11:36:14;;;;;;;10.02;2.53;;;;;;;;;;4954403;28;20080;-75
2022/09/22 11:38:43;;;;;;;9.27;2.15;;;;;;;;;;4954366;28;20024;-74
2022/09/22 11:41:20;;;;;;;8.43;2.53;;;;;;;;;;4956625;28;20060;-73
2022/09/22 11:43:55;;;;;;;10.43;2.92;;;;;;;;;;4955817;28;20035;-72
2022/09/22 11:46:21;;;;;;;7.40;2.65;;;;;;;;;;4953375;29;20035;-75
2022/09/22 11:49:15;;;;;;;12.05;2.50;;;;;;;;;;4952503;29;20081;-74
2022/09/22 11:51:43;;;;;;;11.70;1.92;;;;;;;;;;4952070;29;20027;-73
2022/09/22 11:54:22;;;;;;;7.82;1.60;;;;;;;;;;4951787;28;20023;-74
2022/09/22 11:56:52;;;;;;;6.03;1.35;;;;;;;;;;4951615;28;20026;-74
2022/09/22 11:59:31;;;;;;;8.77;3.13;;;;;;;;;;4951938;28;20046;-74
2022/09/22 12:01:57;;;;;;;6.95;2.42;;;;;;;;;;4951552;28;20111;-74
2022/09/22 12:04:34;;;;;;;10.85;2.58;;;;;;;;;;4952520;28;20031;-74
2022/09/22 12:07:02;;;;;;;10.90;2.00;;;;;;;;;;4952225;29;20113;-73
2022/09/22 12:09:28;;;;;;;3.80;1.40;;;;;;;;;;4951788;29;20380;-73
2022/09/22 12:11:55;;;;;;;6.65;1.95;;;;;;;;;;4951484;28;20030;-74
2022/09/22 12:14:21;;;;;;;5.00;1.70;;;;;;;;;;4950158;28;20024;-73
2022/09/22 12:16:57;;;;;;;6.97;1.23;;;;;;;;;;4951395;29;20385;-73
2022/09/22 12:19:44;;;;;;;8.30;1.85;;;;;;;;;;4952923;28;20027;-73
2022/09/22 12:22:10;;;;;;;8.65;1.73;;;;;;;;;;4949099;28;20035;-73
2022/09/22 12:24:36;;;;;;;5.47;1.80;;;;;;;;;;4955690;28;20031;-73
2022/09/22 12:27:16;;;;;;;7.57;1.92;;;;;;;;;;4958301;28;20501;-72
2022/09/22 12:29:43;;;;;;;6.60;1.55;;;;;;;;;;5051214;28;20104;-73
2022/09/22 12:32:29;;;;;;;6.07;1.40;;;;;;;;;;5051133;28;20017;-73
2022/09/22 12:34:57;;;;;;;7.05;1.58;;;;;;;;;;5051394;28;20028;-74
2022/09/22 12:37:30;;;;;;;8.75;1.50;;;;;;;;;;5051312;28;20100;-72
2022/09/22 12:40:01;;;;;;;6.72;1.55;;;;;;;;;;5051971;28;20033;-73
2022/09/22 12:42:30;;;;;;;6.15;2.83;;;;;;;;;;5033395;28;20033;-73
2022/09/22 12:44:57;;;;;;;4.20;1.52;;;;;;;;;;5050946;28;20512;-73
2022/09/22 12:47:38;;;;;;;6.97;1.45;;;;;;;;;;5025223;28;20639;-73
2022/09/22 12:50:06;;;;;;;6.95;1.30;;;;;;;;;;4953773;28;20042;-73
2022/09/22 12:52:41;;;;;;;8.15;1.30;;;;;;;;;;4954889;28;20027;-73
2022/09/22 12:55:17;;;;;;;5.13;1.50;;;;;;;;;;4953960;28;20054;-73
2022/09/22 12:57:44;;;;;;;11.15;1.60;;;;;;;;;;4952077;28;20027;-73
2022/09/22 13:00:14;;;;;;;7.13;2.97;;;;;;;;;;4952852;28;20502;-74
2022/09/22 13:02:42;;;;;;;4.20;1.30;;;;;;;;;;4954304;28;20485;-71
2022/09/22 13:05:08;;;;;;;6.00;2.08;;;;;;;;;;4953890;28;20053;-73
2022/09/22 13:07:38;;;;;;;3.65;1.10;;;;;;;;;;4959490;28;20034;-75
2022/09/22 13:10:22;;;;;;;7.45;1.42;;;;;;;;;;4960858;28;20104;-73
2022/09/22 13:12:48;;;;;;;;;;;;;;;;;;4956747;28;20028;-71
2022/09/22 13:15:16;;;;;;;3.85;1.08;;;;;;;;;;4958580;28;20001;-72
2022/09/22 13:17:48;;;;;;;5.10;1.30;;;;;;;;;;4962875;28;20019;-75
2022/09/22 13:20:20;;;;;;;3.33;1.45;;;;;;;;;;4974319;28;20064;-75
2022/09/22 13:22:46;;;;;;;6.20;1.25;;;;;;;;;;4973007;28;20103;-74
2022/09/22 13:25:13;;;;;;;13.30;4.35;;;;;;;;;;4975837;23;20062;-76
2022/09/22 13:27:39;;;;;;;6.63;2.80;;;;;;;;;;4952561;28;20058;-74
2022/09/22 13:30:07;;;;;;;8.73;1.60;;;;;;;;;;4952422;29;20443;-70
2022/09/22 13:32:33;;;;;;;6.30;1.77;;;;;;;;;;4993664;28;20023;-71
2022/09/22 13:34:58;;;;;;;4.80;1.20;;;;;;;;;;4998149;28;20025;-72
2022/09/22 13:37:25;;;;;;;8.40;1.50;;;;;;;;;;5054150;28;20100;-70
2022/09/22 13:39:52;;;;;;;9.60;1.45;;;;;;;;;;5056147;28;20139;-72
2022/09/22 13:42:30;;;;;;;5.72;1.70;;;;;;;;;;5056844;28;20112;-73
2022/09/22 13:45:05;;;;;;;10.07;1.30;;;;;;;;;;5054716;28;20044;-72
2022/09/22 13:47:33;;;;;;;13.07;6.22;;;;;;;;;;4933485;29;20060;-74
2022/09/22 13:50:04;;;;;;;8.90;1.50;;;;;;;;;;4936082;29;20465;-71
2022/09/22 13:52:31;;;;;;;5.22;1.35;;;;;;;;;;4933851;29;20173;-71
2022/09/22 13:55:07;;;;;;;7.68;1.65;;;;;;;;;;4933438;29;20499;-71
2022/09/22 13:57:34;;;;;;;10.15;1.45;;;;;;;;;;4954931;28;20041;-72
2022/09/22 14:00:00;;;;;;;6.53;1.42;;;;;;;;;;5053392;28;20053;-71
2022/09/22 14:02:27;;;;;;;7.47;1.52;;;;;;;;;;5052717;28;20079;-71
2022/09/22 14:04:55;;;;;;;13.00;3.95;;;;;;;;;;5054770;28;20021;-70
2022/09/22 14:07:22;;;;;;;8.80;2.05;;;;;;;;;;5053788;28;20021;-72
2022/09/22 14:09:49;;;;;;;9.23;1.95;;;;;;;;;;5024316;28;20114;-72
2022/09/22 14:12:15;;;;;;;9.30;2.47;;;;;;;;;;4953092;28;20043;-72
2022/09/22 14:14:41;;;;;;;6.68;2.05;;;;;;;;;;4956406;28;20031;-71
2022/09/22 14:17:07;;;;;;;8.55;2.08;;;;;;;;;;4964489;29;20084;-72
2022/09/22 14:19:36;;;;;;;5.35;1.58;;;;;;;;;;4959367;28;20267;-71
2022/09/22 14:22:13;;;;;;;9.60;3.22;;;;;;;;;;4958628;28;20035;-74
2022/09/22 14:24:42;;;;;;;7.80;2.10;;;;;;;;;;4954546;28;20039;-73
2022/09/22 14:27:17;;;;;;;8.05;1.83;;;;;;;;;;4955402;28;20102;-72
2022/09/22 14:29:46;;;;;;;7.97;1.58;;;;;;;;;;4951680;29;20493;-71
2022/09/22 14:32:18;;;;;;;8.75;1.67;;;;;;;;;;4998457;28;20032;-70
2022/09/22 14:34:46;;;;;;;5.07;1.23;;;;;;;;;;4988864;28;20023;-72
2022/09/22 14:37:15;;;;;;;5.82;1.38;;;;;;;;;;5010214;28;20031;-71
2022/09/22 14:39:42;;;;;;;9.50;1.70;;;;;;;;;;4976494;28;20392;-71
2022/09/22 14:42:10;;;;;;;10.80;3.80;;;;;;;;;;5037197;28;20029;-70
2022/09/22 14:44:44;;;;;;;9.30;1.95;;;;;;;;;;5053042;28;20044;-72
2022/09/22 14:47:24;;;;;;;8.88;1.65;;;;;;;;;;5010485;28;20024;-70
2022/09/22 14:50:04;;;;;;;10.43;1.60;;;;;;;;;;4951770;28;20055;-71
2022/09/22 14:52:32;;;;;;;5.32;1.70;;;;;;;;;;4953674;29;20081;-70
2022/09/22 14:55:01;;;;;;;11.68;1.98;;;;;;;;;;4951303;28;20483;-73
2022/09/22 14:57:28;;;;;;;18.13;8.95;;;;;;;;;;4951977;29;20041;-71
2022/09/22 15:02:43;;;;;;;11.27;4.25;;;;;;;;;;4953868;29;20085;-72
2022/09/22 15:05:10;;;;;;;8.95;2.22;;;;;;;;;;4952434;28;20081;-71